Howard Beach, New York
Current Conditions -  °F | °C
As of 8:51 AM on Wednesday 28 Jan 2015 (Local Time) from KJFK Reporting Station
Scattered Clouds Scattered Clouds  
Wind Chill:   Ceiling: Unl
Heat Index: 20°   Visibility: 10mi
Dew Point:   Wind: 20mph
Humidity: 44%   Direction: 330°NNW
Pressure: 30.03"   Gusts: 26mph
Location:  40.66°N, 73.84°W
Report Text: KJFK 281351Z 33017G23KT 10SM R04R/5000VP6000FT FEW055 SCT140 M07/M17 A3003 RMK AO2 SLP169 T10671172 $
Loading
Personal Weather Stations






























Interactive Weather Map New forecast layout! Learn more

10-Day Weather Forecast

Advertisements
Track Severe Weather on mobile